Time;durP1;ratioP1;P1;durP2;ratioP2;P2;SDS_P1;SDS_P2;PMS_P1;PMS_P2;Temp;Humidity;BMP_temperature;BMP_pressure;BME280_temperature;BME280_humidity;BME280_pressure;Samples;Min_cycle;Max_cycle;Signal;HPM_P1;HPM_P2
2022/01/16 00:04:41;;;;;;;7.67;3.67;;;1.90;99.90;;;;;;5051337;28;20197;-75
2022/01/16 00:07:06;;;;;;;7.67;2.63;;;1.90;99.90;;;;;;5033233;28;20186;-76
2022/01/16 00:09:32;;;;;;;1.83;1.73;;;1.90;99.90;;;;;;5051242;28;20177;-76
2022/01/16 00:12:00;;;;;;;13.43;3.67;;;1.90;99.90;;;;;;5050870;28;20177;-75
2022/01/16 00:14:28;;;;;;;2.77;2.57;;;1.90;99.90;;;;;;5050993;28;20726;-76
2022/01/16 00:16:53;;;;;;;7.33;4.23;;;1.90;99.90;;;;;;5052303;28;20169;-75
2022/01/16 00:19:19;;;;;;;3.40;3.20;;;1.90;99.90;;;;;;5037388;28;20288;-76
2022/01/16 00:21:44;;;;;;;3.83;3.53;;;2.00;99.90;;;;;;5054751;28;20551;-76
2022/01/16 00:24:11;;;;;;;3.30;1.53;;;2.00;99.90;;;;;;5055000;28;20630;-76
2022/01/16 00:26:37;;;;;;;4.10;3.83;;;2.00;99.90;;;;;;5055110;28;20552;-76
2022/01/16 00:29:07;;;;;;;5.20;4.77;;;2.00;99.90;;;;;;5055172;28;20595;-75
2022/01/16 00:31:33;;;;;;;3.40;3.10;;;2.00;99.90;;;;;;5054723;28;20181;-74
2022/01/16 00:33:58;;;;;;;2.60;2.43;;;2.00;99.90;;;;;;5054926;28;20202;-75
2022/01/16 00:36:24;;;;;;;4.17;2.83;;;2.00;99.90;;;;;;5054484;28;20964;-74
2022/01/16 00:38:53;;;;;;;7.40;6.87;;;2.00;99.90;;;;;;5055063;28;20212;-75
2022/01/16 00:41:21;;;;;;;5.97;5.63;;;2.00;99.90;;;;;;5054513;28;20192;-73
2022/01/16 00:43:51;;;;;;;6.33;4.00;;;2.00;99.90;;;;;;5054704;28;20247;-74
2022/01/16 00:46:18;;;;;;;4.73;4.23;;;2.00;99.90;;;;;;5054715;28;20173;-75
2022/01/16 00:48:44;;;;;;;6.03;5.50;;;2.00;99.90;;;;;;5054300;28;20749;-75
2022/01/16 00:51:11;;;;;;;4.67;3.07;;;2.10;99.90;;;;;;5054673;28;20203;-76
2022/01/16 00:53:39;;;;;;;2.20;1.60;;;2.10;99.90;;;;;;5036378;28;20257;-76
2022/01/16 00:56:05;;;;;;;6.33;5.57;;;2.10;99.90;;;;;;5051417;28;20179;-75
2022/01/16 00:58:30;;;;;;;3.13;2.93;;;2.10;99.90;;;;;;5031813;28;20260;-76
2022/01/16 01:00:56;;;;;;;5.80;5.40;;;2.20;99.90;;;;;;5053459;28;20576;-76
2022/01/16 01:03:22;;;;;;;2.03;1.90;;;2.10;99.90;;;;;;5054031;28;20174;-76
2022/01/16 01:05:47;;;;;;;4.47;4.07;;;2.10;99.90;;;;;;5054344;28;20173;-75
2022/01/16 01:08:13;;;;;;;2.87;2.60;;;2.20;99.90;;;;;;5054512;28;20665;-75
2022/01/16 01:10:41;;;;;;;18.50;5.53;;;2.10;99.90;;;;;;5054132;28;20695;-75
2022/01/16 01:13:21;;;;;;;2.53;2.27;;;2.10;99.90;;;;;;5036035;28;20592;-76
2022/01/16 01:15:49;;;;;;;2.70;2.43;;;2.10;99.90;;;;;;5116302;22;20226;-72
2022/01/16 01:18:16;;;;;;;1.77;1.77;;;2.10;99.90;;;;;;5074691;28;20181;-72
2022/01/16 01:20:44;;;;;;;3.17;2.87;;;2.10;99.90;;;;;;5074560;28;20176;-73
2022/01/16 01:23:10;;;;;;;1.33;1.23;;;2.10;99.90;;;;;;5074846;28;20271;-73
2022/01/16 01:25:37;;;;;;;4.90;4.37;;;2.10;99.90;;;;;;5074889;28;20548;-73
2022/01/16 01:28:04;;;;;;;3.10;2.77;;;2.20;99.90;;;;;;5070453;28;20178;-73
2022/01/16 01:30:29;;;;;;;4.33;2.97;;;2.20;99.90;;;;;;5065306;28;20964;-71
2022/01/16 01:32:56;;;;;;;7.60;4.63;;;2.10;99.90;;;;;;5074392;28;20181;-71
2022/01/16 01:35:22;;;;;;;5.40;3.70;;;2.10;99.90;;;;;;5074605;28;20199;-72
2022/01/16 01:37:48;;;;;;;2.53;1.70;;;2.10;99.90;;;;;;5056692;28;20716;-72
2022/01/16 01:40:23;;;;;;;3.27;2.97;;;2.10;99.90;;;;;;5074445;28;20196;-71
2022/01/16 01:51:15;;;;;;;0.70;0.70;;;2.00;99.90;;;;;;5063345;28;20206;-71
2022/01/16 01:53:42;;;;;;;5.00;3.03;;;2.00;99.90;;;;;;5073997;28;20173;-71
2022/01/16 01:56:11;;;;;;;2.20;2.10;;;2.10;99.90;;;;;;5070530;28;20202;-72
2022/01/16 01:58:37;;;;;;;5.30;4.63;;;2.10;99.90;;;;;;5056328;28;20196;-71
2022/01/16 02:01:03;;;;;;;4.30;4.00;;;2.10;99.90;;;;;;5073644;28;20605;-71
2022/01/16 02:06:40;;;;;;;2.87;2.67;;;2.10;99.90;;;;;;5073328;28;20224;-71
2022/01/16 02:09:06;;;;;;;2.03;1.93;;;2.10;99.90;;;;;;5051844;28;20185;-71
2022/01/16 02:11:33;;;;;;;6.20;3.50;;;2.10;99.90;;;;;;5041773;28;20194;-72
2022/01/16 02:14:09;;;;;;;2.20;2.10;;;2.20;99.90;;;;;;5073721;28;20170;-71
2022/01/16 02:35:49;;;;;;;7.40;5.80;;;2.10;99.90;;;;;;5031267;28;20274;-72
2022/01/16 02:38:14;;;;;;;2.33;1.97;;;2.10;99.90;;;;;;5073931;28;20180;-73
2022/01/16 02:40:44;;;;;;;4.10;1.27;;;2.10;99.90;;;;;;5073889;28;20174;-72
2022/01/16 02:43:10;;;;;;;2.03;1.90;;;2.00;99.90;;;;;;5074900;28;20173;-74
2022/01/16 02:45:37;;;;;;;0.50;0.50;;;2.00;99.90;;;;;;5079109;28;20244;-72
2022/01/16 02:48:07;;;;;;;3.73;3.43;;;1.90;99.90;;;;;;5063083;28;20188;-72
2022/01/16 02:50:36;;;;;;;2.47;2.33;;;1.90;99.90;;;;;;5052240;28;20181;-72
2022/01/16 02:53:09;;;;;;;3.80;3.10;;;1.90;99.90;;;;;;5044869;28;20223;-73
2022/01/16 02:55:39;;;;;;;3.00;2.87;;;1.90;99.90;;;;;;5072931;28;20189;-72
2022/01/16 02:58:04;;;;;;;4.53;2.83;;;1.90;99.90;;;;;;5057464;28;20177;-72
2022/01/16 03:00:30;;;;;;;2.47;2.27;;;1.90;99.90;;;;;;5073109;28;20709;-73
2022/01/16 03:02:56;;;;;;;1.93;1.57;;;1.90;99.90;;;;;;5071805;28;20182;-72
2022/01/16 03:05:21;;;;;;;0.87;0.87;;;1.90;99.90;;;;;;5072707;28;20219;-71
2022/01/16 03:07:47;;;;;;;2.83;2.20;;;1.80;99.90;;;;;;5072979;28;20211;-72
2022/01/16 03:10:38;;;;;;;4.03;3.83;;;1.80;99.90;;;;;;5072378;28;20182;-74
2022/01/16 03:13:05;;;;;;;1.87;1.77;;;1.80;99.90;;;;;;5072525;28;20576;-73
2022/01/16 03:15:30;;;;;;;3.80;2.57;;;1.80;99.90;;;;;;5054331;28;20214;-72
2022/01/16 03:23:15;;;;;;;0.33;0.33;;;1.70;99.90;;;;;;5072083;28;20601;-72
2022/01/16 03:25:41;;;;;;;7.33;4.23;;;1.60;99.90;;;;;;5072346;28;20197;-72
2022/01/16 03:28:06;;;;;;;0.40;0.40;;;1.60;99.90;;;;;;5071876;28;20278;-72
2022/01/16 03:30:32;;;;;;;5.50;2.57;;;1.60;99.90;;;;;;5072052;28;20176;-73
2022/01/16 03:32:58;;;;;;;2.77;2.67;;;1.70;99.90;;;;;;5071789;28;20177;-74
2022/01/16 03:35:24;;;;;;;3.83;2.70;;;1.80;99.90;;;;;;5053982;28;20681;-73
2022/01/16 03:37:50;;;;;;;4.47;4.07;;;1.80;99.90;;;;;;5071878;28;20190;-72
2022/01/16 03:40:16;;;;;;;4.67;3.27;;;1.80;99.90;;;;;;5072071;28;20204;-72
2022/01/16 03:42:42;;;;;;;1.40;1.40;;;1.90;99.90;;;;;;5071669;28;20182;-73
2022/01/16 03:45:09;;;;;;;3.13;2.93;;;1.90;99.90;;;;;;5072100;28;20194;-73
2022/01/16 03:47:35;;;;;;;2.60;2.47;;;2.00;99.90;;;;;;5071713;28;20174;-72
2022/01/16 03:50:01;;;;;;;2.30;2.10;;;2.00;99.90;;;;;;5071693;28;20182;-72
2022/01/16 03:52:27;;;;;;;0.83;0.80;;;2.10;99.90;;;;;;5071620;28;20748;-72
2022/01/16 03:54:52;;;;;;;2.10;2.00;;;2.10;99.90;;;;;;5053737;28;20286;-72
2022/01/16 03:57:18;;;;;;;1.43;1.23;;;2.10;99.90;;;;;;5071979;28;20598;-72
2022/01/16 03:59:43;;;;;;;2.83;2.63;;;2.10;99.90;;;;;;5072248;28;20226;-74
2022/01/16 04:02:09;;;;;;;3.03;2.73;;;2.10;99.90;;;;;;5053141;28;20179;-72
2022/01/16 04:04:35;;;;;;;3.83;2.10;;;2.10;99.90;;;;;;5073014;28;20205;-71
2022/01/16 04:07:01;;;;;;;4.17;2.43;;;2.20;99.90;;;;;;5057136;28;20178;-72
2022/01/16 04:09:27;;;;;;;4.43;4.07;;;2.10;99.90;;;;;;5073329;28;20178;-72
2022/01/16 04:11:54;;;;;;;7.73;7.13;;;2.20;99.90;;;;;;5053938;28;20198;-72
2022/01/16 04:17:08;;;;;;;0.70;0.70;;;2.10;99.90;;;;;;5038155;28;20241;-72
2022/01/16 04:19:35;;;;;;;5.90;5.50;;;2.10;99.90;;;;;;5071452;28;20290;-73
2022/01/16 04:22:00;;;;;;;8.27;4.20;;;2.10;99.90;;;;;;5071301;28;20530;-72
2022/01/16 04:24:26;;;;;;;4.57;3.30;;;2.10;99.90;;;;;;5071745;28;20202;-73
2022/01/16 04:26:52;;;;;;;3.53;3.33;;;2.20;99.90;;;;;;5072789;28;20212;-73
2022/01/16 04:29:17;;;;;;;3.50;3.30;;;2.20;99.90;;;;;;5071559;28;20189;-75
2022/01/16 04:31:43;;;;;;;3.17;2.97;;;2.20;99.90;;;;;;5071864;28;20237;-73
2022/01/16 04:34:09;;;;;;;1.83;1.73;;;2.20;99.90;;;;;;5072654;28;20204;-73
2022/01/16 04:36:34;;;;;;;3.00;2.80;;;2.20;99.90;;;;;;5071292;28;20193;-74
2022/01/16 04:39:00;;;;;;;1.93;1.93;;;2.20;99.90;;;;;;5053247;28;20292;-74
2022/01/16 04:44:10;;;;;;;4.20;3.67;;;2.20;99.90;;;;;;5071397;28;20201;-72
2022/01/16 04:46:36;;;;;;;6.27;3.83;;;2.10;99.90;;;;;;5071472;28;20181;-74
2022/01/16 04:49:03;;;;;;;7.60;2.10;;;2.20;99.90;;;;;;5071437;28;20711;-74
2022/01/16 04:51:30;;;;;;;4.13;2.47;;;2.20;99.90;;;;;;5071102;28;20249;-75
2022/01/16 04:53:56;;;;;;;3.57;3.13;;;2.10;99.90;;;;;;5071182;28;20195;-73
2022/01/16 04:56:22;;;;;;;4.73;3.03;;;2.10;99.90;;;;;;5065629;28;20197;-73
2022/01/16 04:58:49;;;;;;;2.47;2.37;;;2.20;99.90;;;;;;5068555;28;20213;-73
2022/01/16 05:01:15;;;;;;;2.37;2.27;;;2.20;99.90;;;;;;5070494;28;20249;-73
2022/01/16 05:03:41;;;;;;;2.90;2.70;;;2.20;99.90;;;;;;5074428;28;20241;-72
2022/01/16 05:06:07;;;;;;;2.43;2.33;;;2.20;99.90;;;;;;5056941;28;20206;-72
2022/01/16 05:08:33;;;;;;;6.47;4.20;;;2.20;99.90;;;;;;5076435;28;20186;-72
2022/01/16 05:10:59;;;;;;;4.27;3.97;;;2.20;99.90;;;;;;5076937;28;20265;-74
2022/01/16 05:18:41;;;;;;;1.47;1.47;;;2.20;99.90;;;;;;5075406;28;20228;-73
2022/01/16 05:21:07;;;;;;;2.43;2.23;;;2.10;99.90;;;;;;5075455;28;20184;-73
2022/01/16 05:23:34;;;;;;;5.73;4.03;;;2.10;99.90;;;;;;5074367;28;20198;-72
2022/01/16 05:26:00;;;;;;;3.30;1.50;;;2.10;99.90;;;;;;5074329;28;20693;-73
2022/01/16 05:28:26;;;;;;;4.80;4.40;;;2.10;99.90;;;;;;5074363;28;20182;-73
2022/01/16 05:30:52;;;;;;;3.20;3.10;;;2.10;99.90;;;;;;5056650;28;20183;-72
2022/01/16 05:33:18;;;;;;;2.80;2.70;;;2.10;99.90;;;;;;5074183;28;20584;-74
2022/01/16 05:35:43;;;;;;;4.47;2.97;;;2.10;99.90;;;;;;5074571;28;20264;-72
2022/01/16 05:38:10;;;;;;;3.27;2.97;;;2.00;99.90;;;;;;5074308;28;20190;-72
2022/01/16 05:40:36;;;;;;;2.47;2.30;;;2.10;99.90;;;;;;5073675;28;20217;-71
2022/01/16 05:43:02;;;;;;;1.70;1.67;;;2.10;99.90;;;;;;5073909;28;20186;-72
2022/01/16 05:45:28;;;;;;;3.97;3.67;;;2.10;99.90;;;;;;5074129;28;20203;-73
2022/01/16 05:47:54;;;;;;;6.37;4.77;;;2.10;99.90;;;;;;5074011;28;20228;-75
2022/01/16 05:50:20;;;;;;;3.80;3.63;;;2.10;99.90;;;;;;5073945;28;20673;-73
2022/01/16 05:52:46;;;;;;;2.47;2.27;;;2.10;99.90;;;;;;5073669;28;20584;-73
2022/01/16 05:55:11;;;;;;;2.57;2.40;;;2.10;99.90;;;;;;5073886;28;20206;-73
2022/01/16 05:57:37;;;;;;;10.40;5.73;;;2.10;99.90;;;;;;5065314;28;20247;-74
2022/01/16 06:00:08;;;;;;;4.60;4.30;;;2.20;99.90;;;;;;5074396;28;20234;-72
2022/01/16 06:02:34;;;;;;;3.50;3.30;;;2.10;99.90;;;;;;5073395;28;20171;-74
2022/01/16 06:04:59;;;;;;;3.20;3.03;;;2.10;99.90;;;;;;5055930;28;20197;-73
2022/01/16 06:07:25;;;;;;;5.10;4.57;;;2.10;99.90;;;;;;5056172;28;20179;-73
2022/01/16 06:09:52;;;;;;;3.33;3.20;;;2.10;99.90;;;;;;5072973;28;20179;-72
2022/01/16 06:12:18;;;;;;;2.37;2.27;;;2.10;99.90;;;;;;5072225;28;20245;-74
2022/01/16 06:14:43;;;;;;;6.20;5.27;;;2.10;99.90;;;;;;5053699;28;20222;-72
2022/01/16 06:17:09;;;;;;;8.07;3.67;;;2.20;99.90;;;;;;5074578;28;20228;-73
2022/01/16 06:19:35;;;;;;;4.33;3.40;;;2.20;99.90;;;;;;5074534;28;20201;-73
2022/01/16 06:22:00;;;;;;;4.90;3.47;;;2.20;99.90;;;;;;5074195;28;20190;-72
2022/01/16 06:24:26;;;;;;;4.83;4.47;;;2.30;99.90;;;;;;5076989;28;20206;-72
2022/01/16 06:26:51;;;;;;;4.00;3.73;;;2.30;99.90;;;;;;5056357;28;20214;-72
2022/01/16 06:29:18;;;;;;;3.80;3.60;;;2.30;99.90;;;;;;5073745;28;20186;-72
2022/01/16 06:31:44;;;;;;;4.77;4.27;;;2.30;99.90;;;;;;5076568;28;20187;-72
2022/01/16 06:34:10;;;;;;;2.87;2.77;;;2.30;99.90;;;;;;5075584;28;20264;-73
2022/01/16 06:36:36;;;;;;;3.40;3.10;;;2.30;99.90;;;;;;5056334;28;20195;-73
2022/01/16 06:39:07;;;;;;;9.97;8.03;;;2.40;99.90;;;;;;5073740;28;20352;-73
2022/01/16 06:41:33;;;;;;;3.40;3.30;;;2.40;99.90;;;;;;5072985;28;20551;-74
2022/01/16 06:43:59;;;;;;;4.07;3.87;;;2.50;99.90;;;;;;5073081;28;20722;-73
2022/01/16 06:46:25;;;;;;;3.97;3.67;;;2.50;99.90;;;;;;5073017;28;20179;-73
2022/01/16 06:48:51;;;;;;;5.17;4.80;;;2.60;99.90;;;;;;5072561;28;20187;-73
2022/01/16 06:51:19;;;;;;;7.00;5.33;;;2.60;99.90;;;;;;5072424;28;20185;-72
2022/01/16 06:53:46;;;;;;;9.07;7.87;;;2.70;99.90;;;;;;5069855;28;20178;-73
2022/01/16 06:56:12;;;;;;;6.13;5.53;;;2.70;99.90;;;;;;5058148;28;20201;-70
2022/01/16 06:58:37;;;;;;;12.00;10.83;;;2.70;99.90;;;;;;5068832;28;20192;-73
2022/01/16 07:01:03;;;;;;;4.53;4.23;;;2.80;99.90;;;;;;5072118;28;20195;-72
2022/01/16 07:03:28;;;;;;;7.17;6.60;;;2.80;99.90;;;;;;5053178;28;20183;-73
2022/01/16 07:05:54;;;;;;;5.90;5.47;;;2.80;99.90;;;;;;5044777;28;20199;-73
2022/01/16 07:08:23;;;;;;;7.40;6.90;;;2.90;99.90;;;;;;5054774;28;20180;-73
2022/01/16 07:10:50;;;;;;;8.87;5.03;;;2.90;99.90;;;;;;5072563;28;20606;-73
2022/01/16 07:13:16;;;;;;;18.00;2.97;;;2.90;99.90;;;;;;5072223;28;20189;-73
2022/01/16 07:15:42;;;;;;;5.97;5.40;;;3.00;99.90;;;;;;5077950;22;20314;-77
2022/01/16 07:18:07;;;;;;;19.67;7.07;;;3.00;99.90;;;;;;5050696;28;20179;-76
2022/01/16 07:20:33;;;;;;;6.13;1.87;;;3.00;99.90;;;;;;5051722;28;20248;-77
2022/01/16 07:22:58;;;;;;;10.27;5.90;;;3.00;99.90;;;;;;5051398;28;20192;-76
2022/01/16 07:25:24;;;;;;;4.50;4.30;;;3.10;99.90;;;;;;5045489;28;20290;-76
2022/01/16 07:27:49;;;;;;;3.10;2.87;;;3.10;99.90;;;;;;5013729;28;20603;-76
2022/01/16 07:30:15;;;;;;;9.20;7.47;;;3.10;99.90;;;;;;5014066;28;20182;-76
2022/01/16 07:32:40;;;;;;;7.60;6.97;;;3.10;99.90;;;;;;5031290;28;20195;-77
2022/01/16 07:35:06;;;;;;;6.60;5.87;;;3.10;99.90;;;;;;5031616;28;20689;-77
2022/01/16 07:37:32;;;;;;;4.07;3.73;;;3.20;99.90;;;;;;5031613;28;20178;-77
2022/01/16 07:39:57;;;;;;;19.27;5.17;;;3.20;99.90;;;;;;5031634;28;20197;-76
2022/01/16 07:42:23;;;;;;;6.13;5.53;;;3.20;99.90;;;;;;5030975;28;20168;-77
2022/01/16 07:44:48;;;;;;;4.93;4.53;;;3.30;99.90;;;;;;5031330;28;20180;-77
2022/01/16 07:47:14;;;;;;;4.20;3.80;;;3.20;99.90;;;;;;5031571;28;20231;-76
2022/01/16 07:49:40;;;;;;;10.63;6.87;;;3.30;99.90;;;;;;5031461;28;20258;-77
2022/01/16 07:52:05;;;;;;;4.40;4.17;;;3.30;99.90;;;;;;5013317;28;20185;-76
2022/01/16 07:54:31;;;;;;;5.37;4.63;;;3.30;99.90;;;;;;5031649;28;20200;-76
2022/01/16 07:56:57;;;;;;;6.60;6.13;;;3.40;99.90;;;;;;5022885;28;20198;-77
2022/01/16 07:59:22;;;;;;;7.73;5.10;;;3.40;99.90;;;;;;5031235;28;20216;-77
2022/01/16 08:01:48;;;;;;;4.23;2.80;;;3.40;99.90;;;;;;5012919;28;20671;-77
2022/01/16 08:04:13;;;;;;;14.63;7.57;;;3.40;99.90;;;;;;5031330;28;20184;-78
2022/01/16 08:06:39;;;;;;;6.37;5.97;;;3.40;99.90;;;;;;5031159;28;20245;-77
2022/01/16 08:09:05;;;;;;;5.43;3.37;;;3.40;99.90;;;;;;5031133;28;20182;-77
2022/01/16 08:11:30;;;;;;;3.43;3.23;;;3.40;99.90;;;;;;5030927;28;20541;-77
2022/01/16 08:13:56;;;;;;;4.87;4.17;;;3.50;99.90;;;;;;5031232;28;20594;-77
2022/01/16 08:16:21;;;;;;;9.93;6.53;;;3.50;99.90;;;;;;5030968;28;20225;-77
2022/01/16 08:18:47;;;;;;;9.67;5.27;;;3.50;99.90;;;;;;5031056;28;20216;-77
2022/01/16 08:21:12;;;;;;;8.43;5.80;;;3.60;99.90;;;;;;5031006;28;20173;-78
2022/01/16 08:23:38;;;;;;;4.90;4.20;;;3.60;99.90;;;;;;5013178;28;20177;-77
2022/01/16 08:26:04;;;;;;;7.23;2.63;;;3.60;99.90;;;;;;5031033;28;20307;-78
2022/01/16 08:28:30;;;;;;;12.03;5.23;;;3.50;99.90;;;;;;5031168;28;20181;-77
2022/01/16 08:30:55;;;;;;;9.53;8.90;;;3.60;99.90;;;;;;5030673;28;20607;-77
2022/01/16 08:33:21;;;;;;;8.03;7.23;;;3.60;99.90;;;;;;5031051;28;20170;-77
2022/01/16 08:35:47;;;;;;;6.07;5.47;;;3.60;99.90;;;;;;5030435;28;20568;-77
2022/01/16 08:38:12;;;;;;;6.87;5.70;;;3.60;99.90;;;;;;5014726;28;20181;-76
2022/01/16 08:40:38;;;;;;;5.67;5.17;;;3.60;99.90;;;;;;5004702;28;20297;-77
2022/01/16 08:43:08;;;;;;;7.10;6.30;;;3.60;99.90;;;;;;5001690;28;20183;-76
2022/01/16 08:45:39;;;;;;;7.30;5.57;;;3.60;99.90;;;;;;5036428;28;20185;-77
2022/01/16 08:48:06;;;;;;;5.40;5.00;;;3.60;99.90;;;;;;5031497;28;20185;-76
2022/01/16 08:50:33;;;;;;;11.00;7.30;;;3.70;99.90;;;;;;5030354;28;20188;-75
2022/01/16 08:52:59;;;;;;;10.87;5.93;;;3.70;99.90;;;;;;5016384;28;20269;-76
2022/01/16 08:55:25;;;;;;;7.60;7.07;;;3.70;99.90;;;;;;5016706;28;20296;-80
2022/01/16 08:57:50;;;;;;;8.00;4.77;;;3.70;99.90;;;;;;5026659;28;20264;-75
2022/01/16 09:00:16;;;;;;;6.97;5.37;;;3.70;99.90;;;;;;5034361;28;20688;-76
2022/01/16 09:02:42;;;;;;;9.03;8.17;;;3.70;99.90;;;;;;5016316;28;20186;-76
2022/01/16 09:05:08;;;;;;;4.87;4.47;;;3.70;99.90;;;;;;5034162;28;20204;-75
2022/01/16 09:07:34;;;;;;;4.33;3.13;;;3.80;99.90;;;;;;5034209;28;20517;-76
2022/01/16 09:10:01;;;;;;;3.50;3.20;;;3.80;99.90;;;;;;5034193;28;20184;-76
2022/01/16 09:12:28;;;;;;;4.67;3.40;;;3.80;99.90;;;;;;5033822;28;20185;-78
2022/01/16 09:14:54;;;;;;;3.17;3.00;;;3.80;99.90;;;;;;5016537;28;20559;-78
2022/01/16 09:17:19;;;;;;;9.37;5.57;;;3.90;99.90;;;;;;5034301;28;20255;-75
2022/01/16 09:19:46;;;;;;;7.40;6.80;;;3.90;99.90;;;;;;5034004;28;20217;-76
2022/01/16 09:22:11;;;;;;;7.70;5.27;;;3.90;99.90;;;;;;5033898;28;20540;-75
2022/01/16 09:24:37;;;;;;;6.20;5.60;;;4.00;99.90;;;;;;5034030;28;20178;-75
2022/01/16 09:27:03;;;;;;;6.77;3.70;;;4.00;99.90;;;;;;5033841;28;20268;-74
2022/01/16 09:29:29;;;;;;;5.33;4.97;;;4.00;99.90;;;;;;5033811;28;20189;-76
2022/01/16 09:31:55;;;;;;;8.97;5.53;;;4.10;99.90;;;;;;5015754;28;20257;-76
2022/01/16 09:34:20;;;;;;;5.53;3.93;;;4.10;99.90;;;;;;5033770;28;20633;-76
2022/01/16 09:36:46;;;;;;;7.37;6.17;;;4.20;99.90;;;;;;5033700;28;20236;-76
2022/01/16 09:39:12;;;;;;;3.07;2.83;;;4.20;99.90;;;;;;5033833;28;20224;-75
2022/01/16 09:41:42;;;;;;;8.27;7.40;;;4.20;99.90;;;;;;5015602;28;20591;-76
2022/01/16 09:44:07;;;;;;;4.43;3.70;;;4.30;99.90;;;;;;5033675;28;20189;-76
2022/01/16 09:46:35;;;;;;;11.33;7.90;;;4.30;99.90;;;;;;5033574;28;20210;-76
2022/01/16 09:49:01;;;;;;;4.77;4.20;;;4.30;99.90;;;;;;5033219;28;20176;-76
2022/01/16 09:51:28;;;;;;;4.40;3.97;;;4.40;99.90;;;;;;5008315;28;20178;-75
2022/01/16 09:53:54;;;;;;;6.43;5.93;;;4.40;99.90;;;;;;5043814;28;20371;-75
2022/01/16 09:56:20;;;;;;;4.40;4.00;;;4.50;99.90;;;;;;5027742;28;20206;-75
2022/01/16 09:58:45;;;;;;;3.97;3.77;;;4.60;99.90;;;;;;5030477;28;20649;-76
2022/01/16 10:01:11;;;;;;;4.83;4.43;;;4.60;99.90;;;;;;5033514;28;20184;-75
2022/01/16 10:03:38;;;;;;;3.37;3.10;;;4.80;99.90;;;;;;5032964;28;20553;-76
2022/01/16 10:06:11;;;;;;;15.13;8.63;;;4.80;99.90;;;;;;5033228;28;20218;-76
2022/01/16 10:08:39;;;;;;;22.60;7.33;;;4.80;99.90;;;;;;5033560;28;20619;-76
2022/01/16 10:11:27;;;;;;;3.93;3.60;;;4.80;99.90;;;;;;5033096;28;20192;-76
2022/01/16 10:16:37;;;;;;;10.07;4.40;;;4.80;99.90;;;;;;5032647;28;20217;-76
2022/01/16 10:19:17;;;;;;;5.20;3.43;;;4.80;99.90;;;;;;5033441;28;20683;-75
2022/01/16 10:21:43;;;;;;;4.13;3.73;;;4.90;99.90;;;;;;5033118;28;20260;-75
2022/01/16 10:24:36;;;;;;;4.17;3.77;;;4.90;99.90;;;;;;5032880;28;20200;-76
2022/01/16 10:27:07;;;;;;;2.07;1.93;;;4.90;99.90;;;;;;5011039;28;20209;-76
2022/01/16 10:29:56;;;;;;;6.10;5.13;;;4.90;99.90;;;;;;5032752;28;20197;-75
2022/01/16 10:32:27;;;;;;;4.60;3.63;;;4.90;99.90;;;;;;5014722;28;20660;-75
2022/01/16 10:35:09;;;;;;;6.07;4.10;;;5.00;99.90;;;;;;5032307;28;20671;-76
2022/01/16 10:37:35;;;;;;;23.07;4.30;;;5.00;99.90;;;;;;5032645;28;20177;-75
2022/01/16 10:40:03;;;;;;;3.17;2.97;;;5.00;99.90;;;;;;5032344;28;20255;-75
2022/01/16 10:42:30;;;;;;;5.30;3.63;;;4.90;99.90;;;;;;5032276;28;20220;-75
2022/01/16 10:44:59;;;;;;;4.67;4.37;;;5.00;99.90;;;;;;5032606;28;20196;-75
2022/01/16 10:47:51;;;;;;;5.57;4.70;;;5.00;99.90;;;;;;5032389;28;20185;-75
2022/01/16 10:50:32;;;;;;;14.33;7.30;;;5.00;99.90;;;;;;5032316;28;20169;-75
2022/01/16 10:53:00;;;;;;;4.87;3.67;;;5.00;99.90;;;;;;5031892;28;20599;-76
2022/01/16 10:55:36;;;;;;;6.93;3.60;;;5.10;99.90;;;;;;5031819;28;20297;-75
2022/01/16 10:58:10;;;;;;;10.40;7.17;;;5.10;99.90;;;;;;5023881;28;20225;-75
2022/01/16 11:00:37;;;;;;;10.70;4.10;;;5.00;99.90;;;;;;5031483;28;20209;-76
2022/01/16 11:03:05;;;;;;;4.73;4.20;;;5.00;99.90;;;;;;5032279;28;20225;-75
2022/01/16 11:05:40;;;;;;;6.10;4.87;;;5.10;99.90;;;;;;5015301;28;20198;-75
2022/01/16 11:08:11;;;;;;;10.30;8.57;;;5.10;99.90;;;;;;5032607;28;20186;-76
2022/01/16 11:10:39;;;;;;;6.70;5.10;;;5.10;99.90;;;;;;5032225;28;20197;-76
2022/01/16 11:13:07;;;;;;;6.53;5.83;;;5.10;99.90;;;;;;5032021;28;20177;-75
2022/01/16 11:15:34;;;;;;;3.67;3.37;;;5.20;99.90;;;;;;5031441;28;20225;-75
2022/01/16 11:18:00;;;;;;;7.57;5.90;;;5.20;99.90;;;;;;5032021;28;20197;-75
2022/01/16 11:20:29;;;;;;;4.53;4.30;;;5.20;99.90;;;;;;5014556;28;20711;-76
2022/01/16 11:23:03;;;;;;;8.53;6.17;;;5.30;99.90;;;;;;5031500;28;20184;-75
2022/01/16 11:25:34;;;;;;;9.40;4.10;;;5.30;99.90;;;;;;5031541;28;20248;-75
2022/01/16 11:28:08;;;;;;;4.20;3.13;;;5.40;99.90;;;;;;5014069;28;20251;-75
2022/01/16 11:30:40;;;;;;;3.07;2.83;;;5.30;99.90;;;;;;5031703;28;20664;-75
2022/01/16 11:33:06;;;;;;;4.67;4.30;;;5.30;99.90;;;;;;5031300;28;20216;-75
2022/01/16 11:35:40;;;;;;;5.50;5.03;;;5.30;99.90;;;;;;5031509;28;20600;-76
2022/01/16 11:38:06;;;;;;;6.30;5.73;;;5.20;99.90;;;;;;5031359;28;20200;-75
2022/01/16 11:40:44;;;;;;;5.63;5.07;;;5.30;99.90;;;;;;5013650;28;20217;-75
2022/01/16 11:43:32;;;;;;;4.67;4.07;;;5.30;99.90;;;;;;5031197;28;20180;-75
2022/01/16 11:46:15;;;;;;;7.47;5.03;;;5.40;99.90;;;;;;5031721;28;20209;-76
2022/01/16 11:48:58;;;;;;;3.80;3.50;;;5.50;99.90;;;;;;5031437;28;20200;-75
2022/01/16 11:51:32;;;;;;;10.10;5.30;;;5.60;99.90;;;;;;5013387;28;20526;-75
2022/01/16 11:54:01;;;;;;;10.47;4.57;;;5.80;99.90;;;;;;5030897;28;20272;-76
2022/01/16 11:56:41;;;;;;;8.93;4.60;;;5.80;99.90;;;;;;5025122;28;20206;-75
2022/01/16 11:59:20;;;;;;;6.23;4.43;;;5.80;99.90;;;;;;4993877;28;20213;-75
2022/01/16 12:01:52;;;;;;;6.30;3.50;;;5.80;99.90;;;;;;4993798;28;20566;-76
2022/01/16 12:04:29;;;;;;;16.30;3.57;;;6.10;99.90;;;;;;5011594;28;20182;-75
2022/01/16 12:06:56;;;;;;;4.87;4.43;;;6.20;99.90;;;;;;5011716;28;20210;-75
2022/01/16 12:12:22;;;;;;;6.63;5.00;;;6.20;99.90;;;;;;5012433;28;20312;-76
2022/01/16 12:14:59;;;;;;;14.13;7.17;;;6.10;99.90;;;;;;5004787;28;20213;-75
2022/01/16 12:17:47;;;;;;;8.23;5.20;;;5.90;99.90;;;;;;5015888;28;20585;-73
2022/01/16 12:20:16;;;;;;;5.53;3.07;;;6.10;99.90;;;;;;5021952;28;20248;-75
2022/01/16 12:23:03;;;;;;;5.30;4.73;;;6.30;99.90;;;;;;5037107;28;20219;-75
2022/01/16 12:25:32;;;;;;;8.20;5.37;;;6.30;99.90;;;;;;5034883;28;20273;-75
2022/01/16 12:28:09;;;;;;;3.17;2.87;;;6.30;99.90;;;;;;5035086;28;20194;-75
2022/01/16 12:30:41;;;;;;;4.17;3.90;;;6.10;99.90;;;;;;5035065;28;20616;-75
2022/01/16 12:33:09;;;;;;;11.73;3.67;;;6.00;99.90;;;;;;5034706;28;20216;-76
2022/01/16 12:35:41;;;;;;;7.67;5.00;;;6.10;99.90;;;;;;5034940;28;20262;-75
2022/01/16 12:38:14;;;;;;;9.43;6.97;;;6.30;99.90;;;;;;5034818;28;20611;-75
2022/01/16 12:40:44;;;;;;;7.77;4.60;;;6.40;99.90;;;;;;5034816;28;20680;-75
2022/01/16 12:43:16;;;;;;;8.37;3.97;;;6.30;99.90;;;;;;5034641;28;20608;-74
2022/01/16 12:45:43;;;;;;;5.43;5.03;;;6.50;99.90;;;;;;5034765;28;20281;-75
2022/01/16 12:48:09;;;;;;;5.53;5.03;;;6.50;99.90;;;;;;5034811;28;20182;-75
2022/01/16 12:50:37;;;;;;;5.67;5.07;;;6.30;99.90;;;;;;5034466;28;20174;-75
2022/01/16 12:53:03;;;;;;;2.60;2.47;;;6.20;99.90;;;;;;5033769;28;20192;-72
2022/01/16 12:55:31;;;;;;;5.37;3.70;;;5.90;99.90;;;;;;5034413;28;20580;-75
2022/01/16 12:58:22;;;;;;;12.00;4.50;;;6.00;99.90;;;;;;5016645;28;20189;-75
2022/01/16 13:01:00;;;;;;;5.70;4.63;;;6.00;99.90;;;;;;5022603;28;20248;-75
2022/01/16 13:03:27;;;;;;;8.30;4.90;;;6.00;99.90;;;;;;5034438;28;20731;-74
2022/01/16 13:06:15;;;;;;;3.77;3.37;;;5.90;99.90;;;;;;5034235;28;20194;-75
2022/01/16 13:09:06;;;;;;;6.23;2.43;;;5.80;99.90;;;;;;5034258;28;20247;-75
2022/01/16 13:11:45;;;;;;;5.37;4.13;;;6.00;99.90;;;;;;5016290;28;20726;-75
2022/01/16 13:14:13;;;;;;;6.77;4.40;;;6.00;99.90;;;;;;5034375;28;20181;-75
2022/01/16 13:16:42;;;;;;;6.90;6.03;;;6.00;99.90;;;;;;5076950;22;20234;-72
2022/01/16 13:19:26;;;;;;;2.60;1.87;;;6.00;99.90;;;;;;4997305;28;20736;-72
2022/01/16 13:24:34;;;;;;;3.33;3.07;;;5.80;99.90;;;;;;5014125;28;20186;-72
2022/01/16 13:27:01;;;;;;;3.60;3.30;;;5.80;99.90;;;;;;5015079;28;20198;-72
2022/01/16 13:29:28;;;;;;;13.30;7.33;;;5.90;99.90;;;;;;5015014;28;20171;-73
2022/01/16 13:31:54;;;;;;;9.90;5.70;;;5.90;99.90;;;;;;5014138;28;20233;-72
2022/01/16 13:34:40;;;;;;;2.60;2.43;;;5.90;99.90;;;;;;5014415;28;20186;-73
2022/01/16 13:37:11;;;;;;;3.93;3.27;;;5.80;99.90;;;;;;5014588;28;20213;-73
2022/01/16 13:39:39;;;;;;;2.60;2.40;;;5.80;99.90;;;;;;5014365;28;20260;-73
2022/01/16 13:42:27;;;;;;;2.53;2.43;;;5.80;99.90;;;;;;5014207;28;20335;-73
2022/01/16 13:44:53;;;;;;;1.50;1.30;;;5.70;99.90;;;;;;5023731;28;20177;-73
2022/01/16 13:47:21;;;;;;;1.97;1.90;;;5.70;99.90;;;;;;5034385;28;20636;-73
2022/01/16 13:49:50;;;;;;;1.20;1.17;;;5.60;99.90;;;;;;5033934;28;20205;-73
2022/01/16 13:52:26;;;;;;;3.23;2.77;;;5.60;99.90;;;;;;5017088;28;20285;-73
2022/01/16 13:55:09;;;;;;;1.80;1.37;;;5.60;99.90;;;;;;5013743;28;20204;-74
2022/01/16 13:57:36;;;;;;;2.53;2.37;;;5.60;99.90;;;;;;5023053;28;20636;-74
2022/01/16 14:00:07;;;;;;;3.40;2.87;;;5.60;99.90;;;;;;5014145;28;20241;-74